Dati Storici

Data ora Umidita' aria (%) Temperatura aria (°C) Rad globale (W/m²) Gonioanemometro (°) Tacoanemometro (m/s) Pioggia (mm)
03-11-2012 14:10 86.6 % 12.525 119.872 19.38 1.364 0
03-11-2012 14:00 86.9 % 12.521 85.473 2.128 1.086 0
03-11-2012 13:50 88 % 12.524 124.552 26.737 0.144 0
03-11-2012 13:40 88.3 % 12.284 115.195 30.615 0.96 0
03-11-2012 13:30 88.5 % 11.927 140.371 42.509 1.249 0
03-11-2012 13:20 89.4 % 11.949 106.117 24.513 1.883 0
03-11-2012 13:10 89.5 % 11.81 109.863 39.638 1.378 0
03-11-2012 13:00 89.9 % 11.85 87.598 34.566 1.017 0
03-11-2012 12:50 90.3 % 11.894 71.856 45.967 0.822 0
03-11-2012 12:40 90.8 % 12.026 63.06 73.339 0.87 0
03-11-2012 12:30 91.5 % 11.915 92.59 354.335 0.014 0
03-11-2012 12:20 91.4 % 11.533 102.88 1.12 0.92 0
03-11-2012 12:10 91.5 % 11.397 151.95 11.892 1.506 0
03-11-2012 12:00 92.3 % 11.504 159.481 36.286 1.269 0
03-11-2012 11:50 93.9 % 11.584 188.06 47.428 0.657 0
03-11-2012 11:40 95.4 % 12.054 176.972 7.829 0.559 0
03-11-2012 11:30 96 % 12.147 203.79 144.375 0.891 0
03-11-2012 11:20 95.5 % 11.491 485.022 44.473 1.047 0
03-11-2012 11:10 96.2 % 10.622 255.954 28.276 1.214 0
03-11-2012 11:00 96.6 % 10.348 172.806 10.508 1.192 0

I dati sono presentati in modo automatico a scopo informativo. In seguito a verifica i dati possono subire modifiche o essere invalidati e non riportati negli archivi definitivi.